AirNav   Everest Fuels
 
 1369 users online  

DC16 MPD 3rd District Heliport
Washington, District of Columbia, USA

GOING TO WASHINGTON?


FAA INFORMATION EFFECTIVE 05 DECEMBER 2019

Location

FAA Identifier: DC16
Lat/Long: 38-55-01.4000N 077-02-10.9160W
38-55.023333N 077-02.181933W
38.9170556,-77.0363656
(estimated)
Elevation: 130 ft. / 40 m (estimated)
Variation: 09W (1985)
Time zone: UTC -5 (UTC -4 during Daylight Saving Time)
Zip code: 20009

Heliport Operations

Heliport use: Private use. Permission required prior to landing
Activation date: 08/1981
Control tower: no
ARTCC: WASHINGTON CENTER
FSS: LEESBURG FLIGHT SERVICE STATION
Attendance: UNATNDD
Wind indicator: yes
Segmented circle: yes
Lights: FOR PERIMETER LGTS CALL 202-727-4368.

Heliport Communications

WX ASOS at DCA (4 nm S): 132.65 (703-412-8140)
WX AWOS-3 at CGS (7 nm NE): 121.225 (301-864-5497)
WX AWOS-3PT at GAI (16 nm N): 128.275 (301-977-2971)
WX AWOS-3 at FME (16 nm NE): 123.925
WX ASOS at IAD (20 nm W): PHONE 703-661-2990

Nearby radio navigation aids

VOR radial/distance  VOR name  Freq  Var
DCAr009/3.5WASHINGTON VOR/DME111.0009W
ADWr320/10.3ANDREWS VORTAC113.1010W
OTTr323/18.6NOTTINGHAM VORTAC113.7010W
AMLr101/20.1ARMEL VOR/DME113.5008W
BALr240/23.2BALTIMORE VORTAC115.1011W
FDKr160/(33.6)FREDERICK VOR109.0008W
EMIr192/34.8WESTMINSTER VORTAC117.9008W
BRVr032/37.9BROOKE VORTAC114.5009W

 
NDB name  Hdg/Dist  Freq  Var  ID
GEORGETOWN110/4.232309WGTN --. - -.
OXONN008/9.133211WDCA -.. -.-. .-
DAVEE022/15.722309WDAA -.. .- .-
ELLICOTT220/25.337111WFND ..-. -. -..

Heliport Services

Runway Information

Helipad H1

Dimensions: 40 x 40 ft. / 12 x 12 m
Surface: asphalt
ROOFTOP.
Runway edge lights: PERI
Latitude: 38-55.023333N
Longitude: 077-02.181933W
Elevation: 130.0 ft.
Traffic pattern: leftleft

Heliport Ownership and Management from official FAA records

Ownership: Publicly-owned
Owner: DISTRICT OF COLUMBIA GOV
300 INDIANA AVE NW
WASHINGTON, DC 20001
Phone 202-727-4368
Manager: MRS. ANDREWS
300 INDIANA AVE NW
WASHINGTON, DC 20001
Phone 202-727-4368

Heliport Operational Statistics

Aircraft based on the field: 4
Helicopters: 4
    

Additional Remarks

A52-H1 FLAG POLE NE OF HELIPAD.
FOR CD CTC POTOMAC APCH AT 866-599-3874.

Instrument Procedures

There are no published instrument procedures at DC16.

Some nearby airports with instrument procedures:

KDCA - Ronald Reagan Washington National Airport (4 nm S)
KCGS - College Park Airport (7 nm NE)
KADW - Joint Base Andrews (10 nm SE)
KVKX - Potomac Airfield (11 nm S)
W32 - Washington Executive Airport/Hyde Field (11 nm SE)
W00 - Freeway Airport (12 nm E)
KDAA - Davison Army Airfield (14 nm SW)
KGAI - Montgomery County Airpark (16 nm N)
KFME - Tipton Airport (16 nm NE)
2W5 - Maryland Airport (19 nm S)
 
Loc | Ops | Rwys | IFR | FBO | Links
Com | Nav | Svcs | Stats | Notes
Area around DC16 (MPD 3rd District Heliport)
 
Road maps at: MapQuest Bing Google
 
Aerial photo
No photo
 
Sectional chart

 
Airport distance calculator
Flying to MPD 3rd District Heliport? Find the distance to fly.

From to DC16

Sunrise and sunset
Times for 06-Dec-2019
 Local
(UTC-5)
 Zulu
(UTC)
Morning civil twilight06:4411:44
Sunrise07:1312:13
Sunset16:4521:45
Evening civil twilight17:1522:15

Current date and time
Zulu (UTC)  06-Dec-2019 15:30:14
Local (UTC-5)  06-Dec-2019 10:30:14
 
METAR
KDCA 
4nm S 
061452Z 17008KT 10SM FEW150 BKN250 07/02 A3017 RMK AO2 SLP215 T00720022 55002
KCGS 
7nm NE 
061516Z AUTO 19005KT 10SM CLR 08/M03 A3014 RMK AO1 T00811033
KADW 
10nm SE 
061456Z AUTO 19011KT 10SM CLR 08/M01 A3014 RMK AO2 SLP215 T00811009 55003
KDAA 
13nm SW 
061456Z AUTO 17007KT 10SM CLR 07/M03 A3016 RMK AO2 SLP217 T00711032 55002 $
KFME 
16nm NE 
061515Z AUTO 19004KT 10SM CLR 06/00 A3016 RMK AO1
KGAI 
16nm N 
061456Z AUTO 19006KT 10SM SCT110 07/M02 A3013 RMK AO2 SLP221 T00671022 58007
KIAD 
19nm W 
061452Z 18012KT 10SM SCT140 BKN250 07/M04 A3013 RMK AO2 SLP204 T00721039 58008 $
TAF
KDCA 
4nm S 
061127Z 0612/0718 19006KT P6SM SCT250 FM061700 20011G19KT P6SM BKN090 FM062300 24006KT P6SM OVC050 FM070300 33010G18KT P6SM SCT050 FM070700 33008KT P6SM FEW060
KADW 
10nm SE 
060900Z 0609/0715 19006KT 9999 OVC150 QNH3011INS BECMG 0614/0615 20010G15KT 9999 SCT050 SCT150 QNH3016INS BECMG 0621/0622 24012KT 9999 VCSH BKN045 QNH3004INS BECMG 0701/0702 28010KT 9999 NSW SCT025 QNH3009INS BECMG 0710/0711 34012KT 9999 BKN025 QNH3027INS TX09/0619Z TN00/0611Z
KDAA 
13nm SW 
061000Z 0610/0716 VRB06KT 9999 FEW110 510053 QNH3017INS BECMG 0614/0615 18006KT 9999 FEW080 WS020/22034KT QNH3013INS BECMG 0617/0618 21012KT 9999 FEW060 510043 QNH3003INS BECMG 0714/0715 35010G15KT 9999 SKC 510073 QNH3044INS TX10/0617Z TNM03/0611Z
KIAD 
19nm W 
061127Z 0612/0718 18005KT P6SM SCT250 FM061600 20010G17KT P6SM BKN090 FM062200 22006KT P6SM OVC060 FM070100 31005KT P6SM BKN045 FM070300 34010KT P6SM SCT060
NOTAMs
Click for the latest NOTAMs
NOTAMs are issued by the DoD/FAA and will open in a separate window not controlled by AirNav.

 

 
 

Would you like to see your business listed on this page?

 If your business provides an interesting product or service to pilots, flight crews, aircraft, or users of the MPD 3rd District Heliport, you should consider listing it here.  To start the listing process, click on the button below
 
Add a business
 

Other Pages about MPD 3rd District Heliport

Update a link
 
Copyright © AirNav, LLC. All rights reserved. Privacy Policy  Contact